sensor_id;sensor_type;location;lat;lon;timestamp;temperature;humidity
66920;DHT22;53831;52.090;17.026;2023-09-19T00:01:55;18.00;99.90
66920;DHT22;53831;52.090;17.026;2023-09-19T00:03:57;18.00;99.90
66920;DHT22;53831;52.090;17.026;2023-09-19T00:05:58;18.00;99.90
66920;DHT22;53831;52.090;17.026;2023-09-19T00:08:00;18.00;99.90
66920;DHT22;53831;52.090;17.026;2023-09-19T00:10:01;18.00;99.90
66920;DHT22;53831;52.090;17.026;2023-09-19T00:12:05;18.00;99.90
66920;DHT22;53831;52.090;17.026;2023-09-19T00:14:06;18.00;99.90
66920;DHT22;53831;52.090;17.026;2023-09-19T00:16:09;18.00;99.90
66920;DHT22;53831;52.090;17.026;2023-09-19T00:18:11;18.00;99.90
66920;DHT22;53831;52.090;17.026;2023-09-19T00:20:15;18.00;99.90
66920;DHT22;53831;52.090;17.026;2023-09-19T00:22:17;18.00;99.90
66920;DHT22;53831;52.090;17.026;2023-09-19T00:24:20;17.90;99.90
66920;DHT22;53831;52.090;17.026;2023-09-19T00:26:21;17.90;99.90
66920;DHT22;53831;52.090;17.026;2023-09-19T00:28:22;18.00;99.90
66920;DHT22;53831;52.090;17.026;2023-09-19T00:30:23;17.90;99.90
66920;DHT22;53831;52.090;17.026;2023-09-19T00:32:24;17.90;99.90
66920;DHT22;53831;52.090;17.026;2023-09-19T00:34:25;17.90;99.90
66920;DHT22;53831;52.090;17.026;2023-09-19T00:36:26;17.90;99.90
66920;DHT22;53831;52.090;17.026;2023-09-19T00:38:27;17.90;99.90
66920;DHT22;53831;52.090;17.026;2023-09-19T00:40:27;17.90;99.90
66920;DHT22;53831;52.090;17.026;2023-09-19T00:42:28;17.90;99.90
66920;DHT22;53831;52.090;17.026;2023-09-19T00:44:28;17.90;99.90
66920;DHT22;53831;52.090;17.026;2023-09-19T00:46:32;17.80;99.90
66920;DHT22;53831;52.090;17.026;2023-09-19T00:48:35;17.80;99.90
66920;DHT22;53831;52.090;17.026;2023-09-19T00:50:43;17.80;99.90
66920;DHT22;53831;52.090;17.026;2023-09-19T00:52:44;17.80;99.90
66920;DHT22;53831;52.090;17.026;2023-09-19T00:54:47;17.80;99.90
66920;DHT22;53831;52.090;17.026;2023-09-19T00:56:48;17.80;99.90
66920;DHT22;53831;52.090;17.026;2023-09-19T00:58:51;17.80;99.90
66920;DHT22;53831;52.090;17.026;2023-09-19T01:00:52;17.80;99.90
66920;DHT22;53831;52.090;17.026;2023-09-19T01:02:53;17.80;99.90
66920;DHT22;53831;52.090;17.026;2023-09-19T01:04:54;17.80;99.90
66920;DHT22;53831;52.090;17.026;2023-09-19T01:06:55;17.80;99.90
66920;DHT22;53831;52.090;17.026;2023-09-19T01:08:56;17.80;99.90
66920;DHT22;53831;52.090;17.026;2023-09-19T01:10:59;17.80;99.90
66920;DHT22;53831;52.090;17.026;2023-09-19T01:15:38;17.70;99.90
66920;DHT22;53831;52.090;17.026;2023-09-19T01:27:34;17.70;99.90
66920;DHT22;53831;52.090;17.026;2023-09-19T01:30:02;17.70;99.90
66920;DHT22;53831;52.090;17.026;2023-09-19T01:32:27;17.70;99.90
66920;DHT22;53831;52.090;17.026;2023-09-19T01:34:43;17.70;99.90
66920;DHT22;53831;52.090;17.026;2023-09-19T01:36:45;17.70;99.90
66920;DHT22;53831;52.090;17.026;2023-09-19T01:38:47;17.70;99.90
66920;DHT22;53831;52.090;17.026;2023-09-19T01:40:52;17.70;99.90
66920;DHT22;53831;52.090;17.026;2023-09-19T01:43:08;17.70;99.90
66920;DHT22;53831;52.090;17.026;2023-09-19T01:45:13;17.70;99.90
66920;DHT22;53831;52.090;17.026;2023-09-19T01:47:35;17.70;99.90
66920;DHT22;53831;52.090;17.026;2023-09-19T01:54:24;17.80;99.90
66920;DHT22;53831;52.090;17.026;2023-09-19T01:56:34;17.80;99.90
66920;DHT22;53831;52.090;17.026;2023-09-19T01:58:47;17.80;99.90
66920;DHT22;53831;52.090;17.026;2023-09-19T02:00:55;17.80;99.90
66920;DHT22;53831;52.090;17.026;2023-09-19T02:02:57;17.80;99.90
66920;DHT22;53831;52.090;17.026;2023-09-19T02:05:00;17.80;99.90
66920;DHT22;53831;52.090;17.026;2023-09-19T02:07:02;17.80;99.90
66920;DHT22;53831;52.090;17.026;2023-09-19T02:09:05;17.80;99.90
66920;DHT22;53831;52.090;17.026;2023-09-19T02:11:06;17.80;99.90
66920;DHT22;53831;52.090;17.026;2023-09-19T02:13:07;17.80;99.90
66920;DHT22;53831;52.090;17.026;2023-09-19T02:15:08;17.70;99.90
66920;DHT22;53831;52.090;17.026;2023-09-19T02:17:09;17.70;99.90
66920;DHT22;53831;52.090;17.026;2023-09-19T02:19:11;17.70;99.90
66920;DHT22;53831;52.090;17.026;2023-09-19T02:21:13;17.70;99.90
66920;DHT22;53831;52.090;17.026;2023-09-19T02:23:14;17.70;99.90
66920;DHT22;53831;52.090;17.026;2023-09-19T02:25:16;17.70;99.90
66920;DHT22;53831;52.090;17.026;2023-09-19T02:27:16;17.60;99.90
66920;DHT22;53831;52.090;17.026;2023-09-19T02:29:20;17.60;99.90
66920;DHT22;53831;52.090;17.026;2023-09-19T02:31:23;17.60;99.90
66920;DHT22;53831;52.090;17.026;2023-09-19T02:33:23;17.60;99.90
66920;DHT22;53831;52.090;17.026;2023-09-19T02:35:26;17.60;99.90
66920;DHT22;53831;52.090;17.026;2023-09-19T02:37:28;17.60;99.90
66920;DHT22;53831;52.090;17.026;2023-09-19T02:39:29;17.60;99.90
66920;DHT22;53831;52.090;17.026;2023-09-19T02:41:30;17.60;99.90
66920;DHT22;53831;52.090;17.026;2023-09-19T02:43:30;17.60;99.90
66920;DHT22;53831;52.090;17.026;2023-09-19T02:45:31;17.60;99.90
66920;DHT22;53831;52.090;17.026;2023-09-19T02:47:32;17.60;99.90
66920;DHT22;53831;52.090;17.026;2023-09-19T02:49:33;17.60;99.90
66920;DHT22;53831;52.090;17.026;2023-09-19T02:51:35;17.60;99.90
66920;DHT22;53831;52.090;17.026;2023-09-19T02:53:36;17.60;99.90
66920;DHT22;53831;52.090;17.026;2023-09-19T02:55:44;17.60;99.90
66920;DHT22;53831;52.090;17.026;2023-09-19T02:57:49;17.50;99.90
66920;DHT22;53831;52.090;17.026;2023-09-19T02:59:51;17.50;99.90
66920;DHT22;53831;52.090;17.026;2023-09-19T03:01:52;17.50;99.90
66920;DHT22;53831;52.090;17.026;2023-09-19T03:03:54;17.50;99.90
66920;DHT22;53831;52.090;17.026;2023-09-19T03:05:55;17.50;99.90
66920;DHT22;53831;52.090;17.026;2023-09-19T03:07:56;17.50;99.90
66920;DHT22;53831;52.090;17.026;2023-09-19T03:10:00;17.50;99.90
66920;DHT22;53831;52.090;17.026;2023-09-19T03:12:01;17.50;99.90
66920;DHT22;53831;52.090;17.026;2023-09-19T03:14:06;17.50;99.90
66920;DHT22;53831;52.090;17.026;2023-09-19T03:16:07;17.50;99.90
66920;DHT22;53831;52.090;17.026;2023-09-19T03:18:08;17.50;99.90
66920;DHT22;53831;52.090;17.026;2023-09-19T03:20:08;17.60;99.90
66920;DHT22;53831;52.090;17.026;2023-09-19T03:22:12;17.50;99.90
66920;DHT22;53831;52.090;17.026;2023-09-19T03:24:14;17.50;99.90
66920;DHT22;53831;52.090;17.026;2023-09-19T03:26:15;17.50;99.90
66920;DHT22;53831;52.090;17.026;2023-09-19T03:28:16;17.50;99.90
66920;DHT22;53831;52.090;17.026;2023-09-19T03:30:17;17.40;99.90
66920;DHT22;53831;52.090;17.026;2023-09-19T03:32:18;17.40;99.90
66920;DHT22;53831;52.090;17.026;2023-09-19T03:34:20;17.40;99.90
66920;DHT22;53831;52.090;17.026;2023-09-19T03:36:21;17.30;99.90
66920;DHT22;53831;52.090;17.026;2023-09-19T03:38:23;17.30;99.90
66920;DHT22;53831;52.090;17.026;2023-09-19T03:40:24;17.30;99.90
66920;DHT22;53831;52.090;17.026;2023-09-19T03:42:26;17.20;99.90
66920;DHT22;53831;52.090;17.026;2023-09-19T03:44:27;17.20;99.90
66920;DHT22;53831;52.090;17.026;2023-09-19T03:46:28;17.20;99.90
66920;DHT22;53831;52.090;17.026;2023-09-19T03:48:29;17.20;99.90
66920;DHT22;53831;52.090;17.026;2023-09-19T03:50:31;17.10;99.90
66920;DHT22;53831;52.090;17.026;2023-09-19T03:52:34;17.20;99.90
66920;DHT22;53831;52.090;17.026;2023-09-19T03:54:35;17.10;99.90
66920;DHT22;53831;52.090;17.026;2023-09-19T03:56:36;17.00;99.90
66920;DHT22;53831;52.090;17.026;2023-09-19T03:58:36;17.00;99.90
66920;DHT22;53831;52.090;17.026;2023-09-19T04:00:44;17.00;99.90
66920;DHT22;53831;52.090;17.026;2023-09-19T04:02:45;16.90;99.90
66920;DHT22;53831;52.090;17.026;2023-09-19T04:04:46;16.90;99.90
66920;DHT22;53831;52.090;17.026;2023-09-19T04:06:47;16.90;99.90
66920;DHT22;53831;52.090;17.026;2023-09-19T04:08:48;16.90;99.90
66920;DHT22;53831;52.090;17.026;2023-09-19T04:10:49;16.90;99.90
66920;DHT22;53831;52.090;17.026;2023-09-19T04:12:51;16.90;99.90
66920;DHT22;53831;52.090;17.026;2023-09-19T04:14:53;16.90;99.90
66920;DHT22;53831;52.090;17.026;2023-09-19T04:16:54;16.80;99.90
66920;DHT22;53831;52.090;17.026;2023-09-19T04:18:55;16.90;99.90
66920;DHT22;53831;52.090;17.026;2023-09-19T04:20:56;16.90;99.90
66920;DHT22;53831;52.090;17.026;2023-09-19T04:22:56;16.80;99.90
66920;DHT22;53831;52.090;17.026;2023-09-19T04:24:57;16.80;99.90
66920;DHT22;53831;52.090;17.026;2023-09-19T04:26:58;16.80;99.90
66920;DHT22;53831;52.090;17.026;2023-09-19T04:28:59;16.80;99.90
66920;DHT22;53831;52.090;17.026;2023-09-19T04:31:01;16.80;99.90
66920;DHT22;53831;52.090;17.026;2023-09-19T04:33:01;16.80;99.90
66920;DHT22;53831;52.090;17.026;2023-09-19T04:35:03;16.80;99.90
66920;DHT22;53831;52.090;17.026;2023-09-19T04:37:06;16.80;99.90
66920;DHT22;53831;52.090;17.026;2023-09-19T04:39:07;16.80;99.90
66920;DHT22;53831;52.090;17.026;2023-09-19T04:41:09;16.80;99.90
66920;DHT22;53831;52.090;17.026;2023-09-19T04:43:09;16.80;99.90
66920;DHT22;53831;52.090;17.026;2023-09-19T04:45:10;16.80;99.90
66920;DHT22;53831;52.090;17.026;2023-09-19T04:47:11;16.80;99.90
66920;DHT22;53831;52.090;17.026;2023-09-19T04:49:13;16.80;99.90
66920;DHT22;53831;52.090;17.026;2023-09-19T04:51:13;16.70;99.90
66920;DHT22;53831;52.090;17.026;2023-09-19T04:53:15;16.70;99.90
66920;DHT22;53831;52.090;17.026;2023-09-19T04:55:18;16.70;99.90
66920;DHT22;53831;52.090;17.026;2023-09-19T04:57:19;16.80;99.90
66920;DHT22;53831;52.090;17.026;2023-09-19T04:59:20;16.70;99.90
66920;DHT22;53831;52.090;17.026;2023-09-19T05:01:21;16.80;99.90
66920;DHT22;53831;52.090;17.026;2023-09-19T05:03:22;16.80;99.90
66920;DHT22;53831;52.090;17.026;2023-09-19T05:05:23;16.80;99.90
66920;DHT22;53831;52.090;17.026;2023-09-19T05:07:25;16.80;99.90
66920;DHT22;53831;52.090;17.026;2023-09-19T05:09:26;16.80;99.90
66920;DHT22;53831;52.090;17.026;2023-09-19T05:11:27;16.80;99.90
66920;DHT22;53831;52.090;17.026;2023-09-19T05:13:30;16.80;99.90
66920;DHT22;53831;52.090;17.026;2023-09-19T05:15:31;16.70;99.90
66920;DHT22;53831;52.090;17.026;2023-09-19T05:17:32;16.80;99.90
66920;DHT22;53831;52.090;17.026;2023-09-19T05:19:34;16.70;99.90
66920;DHT22;53831;52.090;17.026;2023-09-19T05:21:35;16.80;99.90
66920;DHT22;53831;52.090;17.026;2023-09-19T05:23:36;16.80;99.90
66920;DHT22;53831;52.090;17.026;2023-09-19T05:25:38;16.80;99.90
66920;DHT22;53831;52.090;17.026;2023-09-19T05:27:39;16.80;99.90
66920;DHT22;53831;52.090;17.026;2023-09-19T05:29:40;16.80;99.90
66920;DHT22;53831;52.090;17.026;2023-09-19T05:31:42;16.80;99.90
66920;DHT22;53831;52.090;17.026;2023-09-19T05:33:43;16.90;99.90
66920;DHT22;53831;52.090;17.026;2023-09-19T05:35:44;16.90;99.90
66920;DHT22;53831;52.090;17.026;2023-09-19T05:37:46;16.90;99.90
66920;DHT22;53831;52.090;17.026;2023-09-19T05:39:47;16.90;99.90
66920;DHT22;53831;52.090;17.026;2023-09-19T05:41:47;17.00;99.90
66920;DHT22;53831;52.090;17.026;2023-09-19T05:43:51;17.00;99.90
66920;DHT22;53831;52.090;17.026;2023-09-19T05:45:52;17.00;99.90
66920;DHT22;53831;52.090;17.026;2023-09-19T05:47:52;17.10;99.90
66920;DHT22;53831;52.090;17.026;2023-09-19T05:50:01;17.10;99.90
66920;DHT22;53831;52.090;17.026;2023-09-19T05:52:04;17.20;99.90
66920;DHT22;53831;52.090;17.026;2023-09-19T05:54:06;17.20;99.90
66920;DHT22;53831;52.090;17.026;2023-09-19T05:56:07;17.30;99.90
66920;DHT22;53831;52.090;17.026;2023-09-19T05:58:09;17.30;99.90
66920;DHT22;53831;52.090;17.026;2023-09-19T06:00:10;17.40;99.90
66920;DHT22;53831;52.090;17.026;2023-09-19T06:02:14;17.50;99.90
66920;DHT22;53831;52.090;17.026;2023-09-19T06:04:15;17.50;99.90
66920;DHT22;53831;52.090;17.026;2023-09-19T06:06:16;17.60;99.90
66920;DHT22;53831;52.090;17.026;2023-09-19T06:08:16;17.60;99.90
66920;DHT22;53831;52.090;17.026;2023-09-19T06:10:17;17.70;99.90
66920;DHT22;53831;52.090;17.026;2023-09-19T06:12:19;17.70;99.90
66920;DHT22;53831;52.090;17.026;2023-09-19T06:14:20;17.80;99.90
66920;DHT22;53831;52.090;17.026;2023-09-19T06:16:20;17.80;99.90
66920;DHT22;53831;52.090;17.026;2023-09-19T06:18:21;17.80;99.90
66920;DHT22;53831;52.090;17.026;2023-09-19T06:20:22;17.90;99.90
66920;DHT22;53831;52.090;17.026;2023-09-19T06:22:24;18.00;99.90
66920;DHT22;53831;52.090;17.026;2023-09-19T06:24:25;18.00;99.90
66920;DHT22;53831;52.090;17.026;2023-09-19T06:26:26;18.10;99.90
66920;DHT22;53831;52.090;17.026;2023-09-19T06:28:27;18.10;99.90
66920;DHT22;53831;52.090;17.026;2023-09-19T06:30:28;18.10;99.90
66920;DHT22;53831;52.090;17.026;2023-09-19T06:32:29;18.20;99.90
66920;DHT22;53831;52.090;17.026;2023-09-19T06:34:30;18.20;99.90
66920;DHT22;53831;52.090;17.026;2023-09-19T06:36:31;18.30;99.90
66920;DHT22;53831;52.090;17.026;2023-09-19T06:38:31;18.30;99.90
66920;DHT22;53831;52.090;17.026;2023-09-19T06:40:34;18.30;99.90
66920;DHT22;53831;52.090;17.026;2023-09-19T06:42:36;18.30;99.90
66920;DHT22;53831;52.090;17.026;2023-09-19T06:44:37;18.20;99.90
66920;DHT22;53831;52.090;17.026;2023-09-19T06:46:38;18.20;99.90
66920;DHT22;53831;52.090;17.026;2023-09-19T06:48:39;18.20;99.90
66920;DHT22;53831;52.090;17.026;2023-09-19T06:50:40;18.10;99.90
66920;DHT22;53831;52.090;17.026;2023-09-19T06:52:41;18.10;99.90
66920;DHT22;53831;52.090;17.026;2023-09-19T06:54:42;18.10;99.90
66920;DHT22;53831;52.090;17.026;2023-09-19T06:56:43;18.10;99.90
66920;DHT22;53831;52.090;17.026;2023-09-19T06:58:44;18.10;99.90
66920;DHT22;53831;52.090;17.026;2023-09-19T07:00:44;18.10;99.90
66920;DHT22;53831;52.090;17.026;2023-09-19T07:02:45;18.20;99.90
66920;DHT22;53831;52.090;17.026;2023-09-19T07:04:54;18.20;99.90
66920;DHT22;53831;52.090;17.026;2023-09-19T07:06:55;18.30;99.90
66920;DHT22;53831;52.090;17.026;2023-09-19T07:08:56;18.40;99.90
66920;DHT22;53831;52.090;17.026;2023-09-19T07:10:56;18.40;99.90
66920;DHT22;53831;52.090;17.026;2023-09-19T07:12:57;18.50;99.90
66920;DHT22;53831;52.090;17.026;2023-09-19T07:14:59;18.50;99.90
66920;DHT22;53831;52.090;17.026;2023-09-19T07:16:59;18.50;99.90
66920;DHT22;53831;52.090;17.026;2023-09-19T07:19:00;18.50;99.90
66920;DHT22;53831;52.090;17.026;2023-09-19T07:21:02;18.50;99.90
66920;DHT22;53831;52.090;17.026;2023-09-19T07:23:05;18.40;99.90
66920;DHT22;53831;52.090;17.026;2023-09-19T07:25:06;18.40;99.90
66920;DHT22;53831;52.090;17.026;2023-09-19T07:27:07;18.40;99.90
66920;DHT22;53831;52.090;17.026;2023-09-19T07:29:09;18.50;99.90
66920;DHT22;53831;52.090;17.026;2023-09-19T07:31:09;18.50;99.90
66920;DHT22;53831;52.090;17.026;2023-09-19T07:33:10;18.60;99.90
66920;DHT22;53831;52.090;17.026;2023-09-19T07:35:14;18.70;99.90
66920;DHT22;53831;52.090;17.026;2023-09-19T07:37:15;18.70;99.90
66920;DHT22;53831;52.090;17.026;2023-09-19T07:39:16;18.80;99.90
66920;DHT22;53831;52.090;17.026;2023-09-19T07:41:17;18.80;99.90
66920;DHT22;53831;52.090;17.026;2023-09-19T07:43:18;18.80;99.90
66920;DHT22;53831;52.090;17.026;2023-09-19T07:45:19;18.90;99.90
66920;DHT22;53831;52.090;17.026;2023-09-19T07:47:20;19.00;99.90
66920;DHT22;53831;52.090;17.026;2023-09-19T07:49:24;19.10;99.90
66920;DHT22;53831;52.090;17.026;2023-09-19T07:51:24;19.30;99.90
66920;DHT22;53831;52.090;17.026;2023-09-19T07:53:25;19.40;99.90
66920;DHT22;53831;52.090;17.026;2023-09-19T07:55:26;19.50;99.90
66920;DHT22;53831;52.090;17.026;2023-09-19T07:57:27;19.70;99.90
66920;DHT22;53831;52.090;17.026;2023-09-19T07:59:29;19.80;99.90
66920;DHT22;53831;52.090;17.026;2023-09-19T08:01:29;19.80;99.90
66920;DHT22;53831;52.090;17.026;2023-09-19T08:03:30;19.80;99.90
66920;DHT22;53831;52.090;17.026;2023-09-19T08:05:31;19.80;99.90
66920;DHT22;53831;52.090;17.026;2023-09-19T08:07:33;19.70;99.90
66920;DHT22;53831;52.090;17.026;2023-09-19T08:09:36;19.70;99.90
66920;DHT22;53831;52.090;17.026;2023-09-19T08:11:38;19.60;99.90
66920;DHT22;53831;52.090;17.026;2023-09-19T08:13:39;19.70;99.90
66920;DHT22;53831;52.090;17.026;2023-09-19T08:15:49;19.80;99.90
66920;DHT22;53831;52.090;17.026;2023-09-19T08:17:51;19.80;99.90
66920;DHT22;53831;52.090;17.026;2023-09-19T08:19:52;20.00;99.90
66920;DHT22;53831;52.090;17.026;2023-09-19T08:21:53;20.20;99.90
66920;DHT22;53831;52.090;17.026;2023-09-19T08:23:55;20.30;99.90
66920;DHT22;53831;52.090;17.026;2023-09-19T08:25:57;20.40;99.90
66920;DHT22;53831;52.090;17.026;2023-09-19T08:27:58;20.50;99.90
66920;DHT22;53831;52.090;17.026;2023-09-19T08:30:00;20.70;99.90
66920;DHT22;53831;52.090;17.026;2023-09-19T08:32:01;20.60;99.90
66920;DHT22;53831;52.090;17.026;2023-09-19T08:34:01;20.70;99.90
66920;DHT22;53831;52.090;17.026;2023-09-19T08:36:06;20.70;99.90
66920;DHT22;53831;52.090;17.026;2023-09-19T08:38:07;20.50;99.90
66920;DHT22;53831;52.090;17.026;2023-09-19T08:40:08;20.50;99.90
66920;DHT22;53831;52.090;17.026;2023-09-19T08:42:09;20.40;99.90
66920;DHT22;53831;52.090;17.026;2023-09-19T08:44:11;20.40;99.90
66920;DHT22;53831;52.090;17.026;2023-09-19T08:46:14;20.30;99.90
66920;DHT22;53831;52.090;17.026;2023-09-19T08:48:24;20.30;99.90
66920;DHT22;53831;52.090;17.026;2023-09-19T08:50:28;20.30;99.90
66920;DHT22;53831;52.090;17.026;2023-09-19T08:52:41;20.10;99.90
66920;DHT22;53831;52.090;17.026;2023-09-19T08:54:43;20.00;99.90
66920;DHT22;53831;52.090;17.026;2023-09-19T08:56:45;20.00;99.90
66920;DHT22;53831;52.090;17.026;2023-09-19T08:58:50;20.00;99.90
66920;DHT22;53831;52.090;17.026;2023-09-19T09:00:54;19.90;99.90
66920;DHT22;53831;52.090;17.026;2023-09-19T09:02:58;19.80;99.90
66920;DHT22;53831;52.090;17.026;2023-09-19T09:05:01;19.90;99.90
66920;DHT22;53831;52.090;17.026;2023-09-19T09:07:05;19.90;99.90
66920;DHT22;53831;52.090;17.026;2023-09-19T09:09:10;19.90;99.90
66920;DHT22;53831;52.090;17.026;2023-09-19T09:11:11;19.80;99.90
66920;DHT22;53831;52.090;17.026;2023-09-19T09:13:13;20.00;99.90
66920;DHT22;53831;52.090;17.026;2023-09-19T09:15:14;20.10;99.90
66920;DHT22;53831;52.090;17.026;2023-09-19T09:17:17;20.20;99.90
66920;DHT22;53831;52.090;17.026;2023-09-19T09:19:20;20.20;99.90
66920;DHT22;53831;52.090;17.026;2023-09-19T09:21:25;20.20;99.90
66920;DHT22;53831;52.090;17.026;2023-09-19T09:23:28;20.30;99.90
66920;DHT22;53831;52.090;17.026;2023-09-19T09:25:52;20.30;99.90
66920;DHT22;53831;52.090;17.026;2023-09-19T09:27:58;20.40;99.90
66920;DHT22;53831;52.090;17.026;2023-09-19T09:30:01;20.20;99.90
66920;DHT22;53831;52.090;17.026;2023-09-19T09:32:15;20.30;99.90
66920;DHT22;53831;52.090;17.026;2023-09-19T09:34:18;20.40;99.90
66920;DHT22;53831;52.090;17.026;2023-09-19T09:36:42;20.40;99.90
66920;DHT22;53831;52.090;17.026;2023-09-19T09:38:43;20.40;99.90
66920;DHT22;53831;52.090;17.026;2023-09-19T09:40:45;20.40;99.90
66920;DHT22;53831;52.090;17.026;2023-09-19T09:42:48;20.20;99.90
66920;DHT22;53831;52.090;17.026;2023-09-19T09:45:07;20.20;99.90
66920;DHT22;53831;52.090;17.026;2023-09-19T09:47:13;20.20;99.90
66920;DHT22;53831;52.090;17.026;2023-09-19T09:49:28;20.30;99.90
66920;DHT22;53831;52.090;17.026;2023-09-19T09:51:31;20.10;99.90
66920;DHT22;53831;52.090;17.026;2023-09-19T09:53:33;20.00;99.90
66920;DHT22;53831;52.090;17.026;2023-09-19T09:58:16;20.10;99.90
66920;DHT22;53831;52.090;17.026;2023-09-19T10:00:18;20.30;99.90
66920;DHT22;53831;52.090;17.026;2023-09-19T10:02:30;20.40;99.90
66920;DHT22;53831;52.090;17.026;2023-09-19T10:04:41;20.50;99.90
66920;DHT22;53831;52.090;17.026;2023-09-19T10:06:52;20.60;99.90
66920;DHT22;53831;52.090;17.026;2023-09-19T10:09:01;20.70;99.90
66920;DHT22;53831;52.090;17.026;2023-09-19T10:11:17;20.70;99.90
66920;DHT22;53831;52.090;17.026;2023-09-19T10:13:20;20.70;99.90
66920;DHT22;53831;52.090;17.026;2023-09-19T10:15:23;20.60;99.90
66920;DHT22;53831;52.090;17.026;2023-09-19T10:17:27;20.40;99.90
66920;DHT22;53831;52.090;17.026;2023-09-19T10:19:33;20.20;99.90
66920;DHT22;53831;52.090;17.026;2023-09-19T10:21:37;20.20;99.90
66920;DHT22;53831;52.090;17.026;2023-09-19T10:23:40;20.20;99.90
66920;DHT22;53831;52.090;17.026;2023-09-19T10:25:44;20.30;99.90
66920;DHT22;53831;52.090;17.026;2023-09-19T10:27:48;20.30;99.90
66920;DHT22;53831;52.090;17.026;2023-09-19T10:29:50;20.20;99.90
66920;DHT22;53831;52.090;17.026;2023-09-19T10:31:55;20.10;99.90
66920;DHT22;53831;52.090;17.026;2023-09-19T10:33:58;20.10;99.90
66920;DHT22;53831;52.090;17.026;2023-09-19T10:36:00;20.40;99.90
66920;DHT22;53831;52.090;17.026;2023-09-19T10:38:04;20.40;99.90
66920;DHT22;53831;52.090;17.026;2023-09-19T10:40:06;20.30;99.90
66920;DHT22;53831;52.090;17.026;2023-09-19T10:42:09;20.30;99.90
66920;DHT22;53831;52.090;17.026;2023-09-19T10:44:16;20.40;99.90
66920;DHT22;53831;52.090;17.026;2023-09-19T10:46:19;20.20;99.90
66920;DHT22;53831;52.090;17.026;2023-09-19T10:48:21;20.30;99.90
66920;DHT22;53831;52.090;17.026;2023-09-19T10:50:26;20.60;99.90
66920;DHT22;53831;52.090;17.026;2023-09-19T10:52:31;20.70;99.90
66920;DHT22;53831;52.090;17.026;2023-09-19T10:54:35;20.70;99.90
66920;DHT22;53831;52.090;17.026;2023-09-19T10:56:43;20.80;99.90
66920;DHT22;53831;52.090;17.026;2023-09-19T10:58:49;20.80;99.90
66920;DHT22;53831;52.090;17.026;2023-09-19T11:00:54;20.90;99.90
66920;DHT22;53831;52.090;17.026;2023-09-19T11:05:12;21.10;99.90
66920;DHT22;53831;52.090;17.026;2023-09-19T11:07:14;21.10;99.90
66920;DHT22;53831;52.090;17.026;2023-09-19T11:09:15;21.30;99.90
66920;DHT22;53831;52.090;17.026;2023-09-19T11:14:13;21.40;99.90
66920;DHT22;53831;52.090;17.026;2023-09-19T11:16:20;21.60;99.90
66920;DHT22;53831;52.090;17.026;2023-09-19T11:20:42;21.60;99.90
66920;DHT22;53831;52.090;17.026;2023-09-19T11:25:19;21.70;99.90
66920;DHT22;53831;52.090;17.026;2023-09-19T11:27:56;21.70;99.90
66920;DHT22;53831;52.090;17.026;2023-09-19T11:30:40;21.60;99.90
66920;DHT22;53831;52.090;17.026;2023-09-19T11:35:21;21.60;99.90
66920;DHT22;53831;52.090;17.026;2023-09-19T11:39:32;21.80;99.90
66920;DHT22;53831;52.090;17.026;2023-09-19T11:41:36;21.80;99.90
66920;DHT22;53831;52.090;17.026;2023-09-19T11:43:39;21.80;99.90
66920;DHT22;53831;52.090;17.026;2023-09-19T11:47:57;22.10;99.90
66920;DHT22;53831;52.090;17.026;2023-09-19T11:49:58;22.30;99.90
66920;DHT22;53831;52.090;17.026;2023-09-19T11:52:02;21.90;99.90
66920;DHT22;53831;52.090;17.026;2023-09-19T11:54:10;21.80;99.90
66920;DHT22;53831;52.090;17.026;2023-09-19T11:56:28;21.90;99.90
66920;DHT22;53831;52.090;17.026;2023-09-19T11:58:29;21.80;99.90
66920;DHT22;53831;52.090;17.026;2023-09-19T12:00:30;21.80;99.90
66920;DHT22;53831;52.090;17.026;2023-09-19T12:02:40;21.80;99.90
66920;DHT22;53831;52.090;17.026;2023-09-19T12:04:46;21.80;99.90
66920;DHT22;53831;52.090;17.026;2023-09-19T12:06:56;22.00;99.90
66920;DHT22;53831;52.090;17.026;2023-09-19T12:08:58;22.10;99.90
66920;DHT22;53831;52.090;17.026;2023-09-19T12:11:00;22.10;99.90
66920;DHT22;53831;52.090;17.026;2023-09-19T12:13:00;22.20;99.90
66920;DHT22;53831;52.090;17.026;2023-09-19T12:15:03;22.30;99.90
66920;DHT22;53831;52.090;17.026;2023-09-19T12:17:04;22.20;99.90
66920;DHT22;53831;52.090;17.026;2023-09-19T12:19:20;22.10;99.90
66920;DHT22;53831;52.090;17.026;2023-09-19T12:21:23;22.20;99.90
66920;DHT22;53831;52.090;17.026;2023-09-19T12:23:25;22.20;99.90
66920;DHT22;53831;52.090;17.026;2023-09-19T12:25:40;22.40;99.90
66920;DHT22;53831;52.090;17.026;2023-09-19T12:27:47;22.60;99.90
66920;DHT22;53831;52.090;17.026;2023-09-19T12:29:53;22.30;99.90
66920;DHT22;53831;52.090;17.026;2023-09-19T12:31:58;22.10;99.90
66920;DHT22;53831;52.090;17.026;2023-09-19T12:33:59;22.00;99.90
66920;DHT22;53831;52.090;17.026;2023-09-19T12:36:18;21.80;99.90
66920;DHT22;53831;52.090;17.026;2023-09-19T12:38:29;21.70;99.90
66920;DHT22;53831;52.090;17.026;2023-09-19T12:40:33;21.80;99.90
66920;DHT22;53831;52.090;17.026;2023-09-19T12:42:36;21.60;99.90
66920;DHT22;53831;52.090;17.026;2023-09-19T12:44:37;21.80;99.90
66920;DHT22;53831;52.090;17.026;2023-09-19T12:46:44;21.90;99.90
66920;DHT22;53831;52.090;17.026;2023-09-19T12:48:45;22.10;99.90
66920;DHT22;53831;52.090;17.026;2023-09-19T12:51:04;22.10;99.90
66920;DHT22;53831;52.090;17.026;2023-09-19T12:53:06;21.90;99.90
66920;DHT22;53831;52.090;17.026;2023-09-19T12:55:29;21.90;99.90
66920;DHT22;53831;52.090;17.026;2023-09-19T12:57:34;22.30;99.90
66920;DHT22;53831;52.090;17.026;2023-09-19T12:59:35;22.50;99.90
66920;DHT22;53831;52.090;17.026;2023-09-19T13:01:36;22.50;99.90
66920;DHT22;53831;52.090;17.026;2023-09-19T13:03:41;22.50;99.90
66920;DHT22;53831;52.090;17.026;2023-09-19T13:07:58;23.00;99.90
66920;DHT22;53831;52.090;17.026;2023-09-19T13:10:04;23.30;99.90
66920;DHT22;53831;52.090;17.026;2023-09-19T13:14:37;23.60;99.90
66920;DHT22;53831;52.090;17.026;2023-09-19T13:19:45;23.00;99.90
66920;DHT22;53831;52.090;17.026;2023-09-19T13:21:50;22.90;99.90
66920;DHT22;53831;52.090;17.026;2023-09-19T13:23:55;22.80;99.90
66920;DHT22;53831;52.090;17.026;2023-09-19T13:25:59;22.70;99.90
66920;DHT22;53831;52.090;17.026;2023-09-19T13:28:00;22.70;99.90
66920;DHT22;53831;52.090;17.026;2023-09-19T13:30:05;23.20;99.90
66920;DHT22;53831;52.090;17.026;2023-09-19T13:32:06;24.10;99.90